Smithville, Ohio
Current Conditions -  °F | °C
As of 9:51 AM on Monday 24 Nov 2014 (Local Time) from KCAK Reporting Station
Overcast Overcast  
Wind Chill: 62°   Ceiling: 2800
Heat Index: 62°   Visibility: 10mi
Dew Point: 51°   Wind: 26mph
Humidity: 67%   Direction: 200°SSW
Pressure: 29.32"   Gusts: 39mph
Location:  40.86°N, 81.86°W
Report Text: KCAK 241451Z 20023G34KT 10SM BKN028 OVC055 17/11 A2932 RMK AO2 PK WND 21040/1430 SLP927 T01670106 58009 $
Loading
Personal Weather Stations






























Interactive Weather Map New forecast layout! Learn more

10-Day Weather Forecast

Advertisements
Track Severe Weather on mobile